Time;durP1;ratioP1;P1;durP2;ratioP2;P2;SDS_P1;SDS_P2;PMS_P1;PMS_P2;Temp;Humidity;BMP_temperature;BMP_pressure;BME280_temperature;BME280_humidity;BME280_pressure;Samples;Min_cycle;Max_cycle;Signal;HPM_P1;HPM_P2
2023/03/02 00:00:09;;;;;;;28.13;13.70;;;;;;;-5.39;100.00;99249.53;4159285;28;20031;-72
2023/03/02 00:02:16;;;;;;;23.08;12.60;;;;;;;-5.33;100.00;99249.59;4158679;28;20144;-72
2023/03/02 00:04:21;;;;;;;27.15;13.63;;;;;;;-5.38;100.00;99243.09;4157294;28;20025;-72
2023/03/02 00:06:22;;;;;;;29.95;14.55;;;;;;;-5.42;100.00;99243.84;4158789;28;20052;-72
2023/03/02 00:08:22;;;;;;;25.10;13.00;;;;;;;-5.48;100.00;99247.56;4157833;28;20449;-72
2023/03/02 00:10:23;;;;;;;26.27;13.40;;;;;;;-5.45;100.00;99253.28;4159563;28;20478;-72
2023/03/02 00:12:27;;;;;;;28.45;14.68;;;;;;;-5.47;100.00;99249.19;4158850;28;20041;-72
2023/03/02 00:14:28;;;;;;;31.13;14.20;;;;;;;-5.50;100.00;99239.75;4159003;28;20502;-73
2023/03/02 00:16:28;;;;;;;25.98;13.25;;;;;;;-5.54;100.00;99241.34;4158471;28;20044;-72
2023/03/02 00:18:28;;;;;;;28.73;13.68;;;;;;;-5.57;100.00;99235.63;4159181;28;20053;-72
2023/03/02 00:20:29;;;;;;;31.20;14.23;;;;;;;-5.57;100.00;99241.81;4159046;28;20080;-72
2023/03/02 00:22:29;;;;;;;28.40;13.80;;;;;;;-5.60;100.00;99228.03;4158831;28;20034;-73
2023/03/02 00:24:30;;;;;;;27.88;13.75;;;;;;;-5.59;100.00;99232.38;4159182;28;20468;-72
2023/03/02 00:26:33;;;;;;;26.23;13.45;;;;;;;-5.58;100.00;99231.28;4159018;28;20351;-72
2023/03/02 00:28:34;;;;;;;28.70;12.82;;;;;;;-5.55;100.00;99236.16;4158529;28;20418;-72
2023/03/02 00:30:37;;;;;;;29.73;13.38;;;;;;;-5.54;100.00;99237.81;4158399;28;20071;-72
2023/03/02 00:32:37;;;;;;;;;;;;;;;-5.43;100.00;99240.34;4158895;28;20395;-72
2023/03/02 00:34:37;;;;;;;28.58;11.98;;;;;;;-5.35;100.00;99240.97;4158810;28;19960;-72
2023/03/02 00:36:38;;;;;;;26.17;13.70;;;;;;;-5.33;100.00;99220.75;4159155;28;20561;-72
2023/03/02 00:38:38;;;;;;;29.23;13.93;;;;;;;-5.25;100.00;99230.25;4158376;28;20120;-72
2023/03/02 00:40:46;;;;;;;30.10;14.70;;;;;;;-5.20;100.00;99233.81;4158350;28;20592;-72
2023/03/02 00:42:47;;;;;;;34.63;14.45;;;;;;;-5.21;100.00;99232.19;4158123;28;20057;-72
2023/03/02 00:44:47;;;;;;;26.55;13.23;;;;;;;-5.18;100.00;99233.56;4158373;28;20038;-72
2023/03/02 00:46:47;;;;;;;26.85;13.05;;;;;;;-5.24;100.00;99232.69;4158652;28;20479;-72
2023/03/02 00:48:48;;;;;;;29.63;13.45;;;;;;;-5.27;100.00;99238.59;4158604;28;20439;-72
2023/03/02 00:50:49;;;;;;;32.78;14.20;;;;;;;-5.24;100.00;99237.28;4158392;28;20041;-72
2023/03/02 00:52:49;;;;;;;30.10;14.68;;;;;;;-5.23;100.00;99231.63;4158215;28;20424;-72
2023/03/02 00:54:49;;;;;;;31.33;15.60;;;;;;;-5.24;100.00;99234.56;4158351;28;20041;-72
2023/03/02 00:56:50;;;;;;;26.80;12.65;;;;;;;-5.28;100.00;99238.88;4158569;28;20059;-72
2023/03/02 00:58:50;;;;;;;28.58;14.45;;;;;;;-5.26;100.00;99229.44;4157694;28;20092;-72
2023/03/02 01:00:50;;;;;;;26.80;13.48;;;;;;;-5.21;100.00;99231.38;4158047;28;20417;-72
2023/03/02 01:02:51;;;;;;;32.50;14.55;;;;;;;-5.23;100.00;99233.50;4157882;28;20041;-72
2023/03/02 01:04:52;;;;;;;26.23;12.88;;;;;;;-5.30;100.00;99233.72;4158480;28;20181;-72
2023/03/02 01:06:52;;;;;;;31.02;13.82;;;;;;;-5.38;100.00;99226.09;4158278;28;20163;-72
2023/03/02 01:08:52;;;;;;;27.73;13.35;;;;;;;-5.49;100.00;99227.88;4158685;28;20431;-72
2023/03/02 01:10:53;;;;;;;29.67;14.00;;;;;;;-5.49;100.00;99219.78;4157864;28;20061;-73
2023/03/02 01:12:53;;;;;;;28.73;13.80;;;;;;;-5.54;100.00;99227.03;4157841;28;20033;-72
2023/03/02 01:14:53;;;;;;;29.10;14.35;;;;;;;-5.58;100.00;99223.22;4158002;28;20069;-73
2023/03/02 01:16:54;;;;;;;29.23;13.60;;;;;;;-5.62;100.00;99220.22;4158519;28;20042;-72
2023/03/02 01:18:54;;;;;;;30.00;14.23;;;;;;;-5.67;100.00;99220.16;4158050;28;20134;-72
2023/03/02 01:21:02;;;;;;;28.48;11.93;;;;;;;-5.61;100.00;99221.84;4157289;28;20048;-72
2023/03/02 01:23:03;;;;;;;28.77;14.18;;;;;;;-5.66;100.00;99219.09;4157534;28;20025;-72
2023/03/02 01:25:04;;;;;;;28.02;13.00;;;;;;;-5.67;100.00;99217.47;4158599;28;20057;-72
2023/03/02 01:27:04;;;;;;;30.85;14.60;;;;;;;-5.74;100.00;99214.97;4157800;28;20041;-72
2023/03/02 01:29:06;;;;;;;30.98;15.05;;;;;;;-5.71;100.00;99213.63;4157614;28;20077;-72
2023/03/02 01:31:06;;;;;;;26.13;13.48;;;;;;;-5.74;100.00;99208.75;4157803;28;20056;-72
2023/03/02 01:33:07;;;;;;;32.90;12.95;;;;;;;-5.71;100.00;99205.53;4157256;28;20029;-72
2023/03/02 01:35:07;;;;;;;30.60;14.15;;;;;;;-5.78;100.00;99208.47;4157957;28;20049;-72
2023/03/02 01:37:08;;;;;;;29.67;13.98;;;;;;;-5.72;100.00;99210.13;4157956;28;20428;-72
2023/03/02 01:39:08;;;;;;;26.90;12.98;;;;;;;-5.78;100.00;99211.16;4157745;28;20084;-72
2023/03/02 01:41:08;;;;;;;32.33;13.40;;;;;;;-5.82;100.00;99199.25;4157605;28;20042;-72
2023/03/02 01:43:14;;;;;;;25.73;12.85;;;;;;;-5.89;100.00;99203.19;4157236;28;20033;-72
2023/03/02 01:45:38;;;;;;;27.55;13.25;;;;;;;-5.89;100.00;99201.31;4157942;28;20470;-72
2023/03/02 01:47:39;;;;;;;27.83;13.05;;;;;;;-5.90;100.00;99205.06;4157635;28;20159;-72
2023/03/02 01:49:45;;;;;;;29.27;13.75;;;;;;;-5.90;100.00;99205.06;4158102;28;20092;-72
2023/03/02 01:51:46;;;;;;;33.53;14.18;;;;;;;-5.93;100.00;99194.84;4157690;28;20485;-72
2023/03/02 01:53:51;;;;;;;28.70;14.13;;;;;;;-5.89;100.00;99206.69;4157121;28;20583;-72
2023/03/02 01:55:52;;;;;;;29.15;12.27;;;;;;;-5.89;100.00;99203.19;4157646;28;20322;-72
2023/03/02 01:57:55;;;;;;;25.35;13.00;;;;;;;-5.96;100.00;99200.72;4157399;28;20759;-72
2023/03/02 02:00:00;;;;;;;27.60;13.07;;;;;;;-5.99;100.00;99209.31;4157560;28;20108;-72
2023/03/02 02:02:05;;;;;;;22.40;10.52;;;;;;;-6.03;100.00;99210.91;4156759;28;20036;-73
2023/03/02 02:04:06;;;;;;;29.17;13.20;;;;;;;-6.09;100.00;99209.22;4156871;28;20047;-72
2023/03/02 02:06:25;;;;;;;31.00;13.05;;;;;;;-6.14;100.00;99215.34;4157831;28;20045;-72
2023/03/02 02:08:26;;;;;;;29.13;12.73;;;;;;;-6.19;100.00;99204.53;4157784;28;20080;-72
2023/03/02 02:10:27;;;;;;;23.58;12.73;;;;;;;-6.16;100.00;99204.00;4157965;28;20052;-72
2023/03/02 02:12:28;;;;;;;29.77;13.68;;;;;;;-6.20;100.00;99194.00;4159394;28;20099;-72
2023/03/02 02:14:28;;;;;;;25.33;13.55;;;;;;;-6.16;100.00;99203.19;4160834;28;20045;-72
2023/03/02 02:16:31;;;;;;;29.55;13.40;;;;;;;-6.20;100.00;99196.69;4160881;28;20045;-72
2023/03/02 02:18:32;;;;;;;;;;;;;;;-6.25;100.00;99190.19;4161289;28;20128;-72
2023/03/02 02:20:43;;;;;;;23.83;11.65;;;;;;;-6.25;100.00;99186.66;4160779;28;19924;-72
2023/03/02 02:22:50;;;;;;;24.92;13.00;;;;;;;-6.26;100.00;99182.34;4160288;28;20525;-72
2023/03/02 02:24:57;;;;;;;31.63;14.38;;;;;;;-6.29;100.00;99191.75;4160471;28;20042;-72
2023/03/02 02:26:58;;;;;;;24.00;12.93;;;;;;;-6.33;100.00;99184.41;4160431;28;20037;-72
2023/03/02 02:29:06;;;;;;;31.35;14.85;;;;;;;-6.31;100.00;99185.78;4160520;28;20315;-72
2023/03/02 02:31:12;;;;;;;28.90;12.25;;;;;;;-6.30;100.00;99187.41;4159888;28;20057;-72
2023/03/02 02:33:20;;;;;;;28.80;13.23;;;;;;;-6.32;100.00;99176.09;4159800;28;20076;-72
2023/03/02 02:35:26;;;;;;;31.60;13.70;;;;;;;-6.25;100.00;99179.41;4160512;28;20088;-72
2023/03/02 02:37:44;;;;;;;28.77;13.52;;;;;;;-6.14;100.00;99174.94;4160834;28;20068;-72
2023/03/02 02:39:47;;;;;;;27.52;12.25;;;;;;;-6.12;100.00;99171.97;4148248;28;20532;-72
2023/03/02 02:41:50;;;;;;;25.75;11.80;;;;;;;-6.05;100.00;99164.53;4158403;28;20462;-72
2023/03/02 02:43:50;;;;;;;26.33;12.68;;;;;;;-6.06;100.00;99162.91;4159604;28;20042;-72
2023/03/02 02:45:54;;;;;;;27.67;12.43;;;;;;;-5.99;100.00;99169.72;4160855;28;20128;-72
2023/03/02 02:47:55;;;;;;;25.10;11.65;;;;;;;-5.99;100.00;99160.81;4160225;28;20520;-72
2023/03/02 02:49:57;;;;;;;24.13;11.50;;;;;;;-5.99;100.00;99164.34;4160322;28;20038;-72
2023/03/02 02:51:58;;;;;;;28.50;12.85;;;;;;;-6.01;100.00;99163.78;4160741;28;20091;-72
2023/03/02 02:54:00;;;;;;;27.70;12.98;;;;;;;-6.07;100.00;99163.97;4159799;28;20038;-72
2023/03/02 02:56:01;;;;;;;26.08;13.43;;;;;;;-6.08;100.00;99160.47;4191711;28;20440;-72
2023/03/02 02:58:11;;;;;;;22.58;11.23;;;;;;;-6.14;100.00;99169.56;4160483;28;20071;-72
2023/03/02 03:00:18;;;;;;;23.88;12.45;;;;;;;-6.19;100.00;99164.13;4160147;28;20496;-72
2023/03/02 03:02:22;;;;;;;25.50;12.07;;;;;;;-6.21;100.00;99160.84;4160570;28;20029;-72
2023/03/02 03:04:27;;;;;;;25.10;11.88;;;;;;;-6.23;100.00;99158.41;4160424;28;20348;-72
2023/03/02 03:06:37;;;;;;;26.42;12.93;;;;;;;-6.27;100.00;99172.66;4160104;28;20083;-72
2023/03/02 03:08:40;;;;;;;24.80;12.38;;;;;;;-6.30;100.00;99176.63;4160317;28;20038;-72
2023/03/02 03:10:42;;;;;;;27.50;12.90;;;;;;;-6.34;100.00;99164.75;4159267;28;20045;-72
2023/03/02 03:12:43;;;;;;;27.20;13.18;;;;;;;-6.36;100.00;99163.38;4159496;28;20103;-72
2023/03/02 03:14:44;;;;;;;26.10;12.63;;;;;;;-6.39;100.00;99164.69;4160199;28;20060;-72
2023/03/02 03:16:46;;;;;;;27.02;12.77;;;;;;;-6.44;100.00;99159.25;4160242;28;20056;-72
2023/03/02 03:18:50;;;;;;;23.67;10.98;;;;;;;-6.47;100.00;99170.50;4159713;28;20037;-72
2023/03/02 03:20:50;;;;;;;24.92;12.13;;;;;;;-6.56;100.00;99166.63;4159769;28;20068;-73
2023/03/02 03:22:52;;;;;;;23.92;12.95;;;;;;;-6.67;100.00;99157.59;4157947;28;20038;-72
2023/03/02 03:24:52;;;;;;;28.10;12.85;;;;;;;-6.57;100.00;99162.31;4159794;28;20045;-72
2023/03/02 03:26:54;;;;;;;28.35;12.95;;;;;;;-6.59;100.00;99164.44;4159792;28;20124;-72
2023/03/02 03:28:56;;;;;;;27.95;12.57;;;;;;;-6.59;100.00;99167.13;4159817;28;20049;-72
2023/03/02 03:30:56;;;;;;;28.80;13.40;;;;;;;-6.62;100.00;99167.59;4159725;28;20120;-72
2023/03/02 03:32:57;;;;;;;26.20;11.73;;;;;;;-6.70;100.00;99170.72;4159160;28;20099;-72
2023/03/02 03:34:57;;;;;;;28.75;13.25;;;;;;;-6.79;100.00;99162.28;4160032;28;20496;-72
2023/03/02 03:37:00;;;;;;;25.88;13.68;;;;;;;-6.78;100.00;99169.31;4159198;28;20432;-72
2023/03/02 03:39:04;;;;;;;26.45;14.02;;;;;;;-6.85;100.00;99166.78;4158911;28;20087;-72
2023/03/02 03:41:04;;;;;;;27.52;11.95;;;;;;;-6.90;100.00;99172.09;4159916;28;20096;-72
2023/03/02 03:43:05;;;;;;;27.85;12.75;;;;;;;-6.94;100.00;99156.72;4158800;28;20481;-72
2023/03/02 03:45:07;;;;;;;29.35;12.40;;;;;;;-6.88;100.00;99164.56;4159664;28;20029;-72
2023/03/02 03:47:07;;;;;;;28.13;12.75;;;;;;;-6.74;100.00;99162.34;4159259;28;20037;-72
2023/03/02 03:49:08;;;;;;;23.55;10.90;;;;;;;-6.70;100.00;99168.88;4159677;28;20209;-72
2023/03/02 03:51:08;;;;;;;21.73;11.38;;;;;;;-6.70;100.00;99160.81;4159138;28;20120;-72
2023/03/02 03:53:09;;;;;;;26.20;12.63;;;;;;;-6.70;100.00;99152.72;4159077;28;20382;-72
2023/03/02 03:55:09;;;;;;;26.00;12.50;;;;;;;-6.67;100.00;99165.69;4159558;28;20124;-72
2023/03/02 03:57:10;;;;;;;28.58;13.70;;;;;;;-6.65;100.00;99157.34;4159083;28;20057;-72
2023/03/02 03:59:15;;;;;;;32.45;13.27;;;;;;;-6.63;100.00;99163.28;4159269;28;20072;-72
2023/03/02 04:01:15;;;;;;;29.45;13.32;;;;;;;-6.62;100.00;99156.84;4158748;28;20110;-72
2023/03/02 04:03:16;;;;;;;31.83;13.77;;;;;;;-6.59;100.00;99153.66;4158882;28;20144;-72
2023/03/02 04:05:16;;;;;;;27.40;13.48;;;;;;;-6.64;100.00;99154.41;4159127;28;20085;-72
2023/03/02 04:07:18;;;;;;;26.42;12.13;;;;;;;-6.66;100.00;99153.84;4159322;28;20366;-72
2023/03/02 04:09:19;;;;;;;27.23;13.20;;;;;;;-6.63;100.00;99152.53;4158502;28;20065;-72
2023/03/02 04:11:19;;;;;;;24.45;11.77;;;;;;;-6.55;100.00;99149.41;4159424;28;20126;-72
2023/03/02 04:13:20;;;;;;;28.83;12.43;;;;;;;-6.54;100.00;99148.34;4158609;28;20037;-72
2023/03/02 04:15:20;;;;;;;24.52;12.73;;;;;;;-6.47;100.00;99150.84;4158991;28;20042;-72
2023/03/02 04:17:21;;;;;;;26.58;12.93;;;;;;;-6.47;100.00;99154.34;4159438;28;20481;-72
2023/03/02 04:19:21;;;;;;;28.52;13.43;;;;;;;-6.53;100.00;99158.88;4158920;28;20132;-72
2023/03/02 04:21:22;;;;;;;30.35;12.05;;;;;;;-6.60;100.00;99154.75;4159143;28;20087;-72
2023/03/02 04:23:22;;;;;;;25.10;12.05;;;;;;;-6.63;100.00;99152.53;4157871;28;20037;-72
2023/03/02 04:25:25;;;;;;;27.10;13.40;;;;;;;-6.47;100.00;99157.03;4158743;28;20159;-72
2023/03/02 04:27:26;;;;;;;23.80;12.05;;;;;;;-6.54;100.00;99145.63;4158681;28;20054;-72
2023/03/02 04:29:26;;;;;;;24.17;12.27;;;;;;;-6.54;100.00;99154.56;4158560;28;20052;-72
2023/03/02 04:31:26;;;;;;;29.08;12.30;;;;;;;-6.57;100.00;99146.97;4159355;28;20142;-72
2023/03/02 04:33:27;;;;;;;23.88;11.93;;;;;;;-6.60;100.00;99143.97;4157995;28;20143;-72
2023/03/02 04:35:27;;;;;;;28.40;12.68;;;;;;;-6.59;100.00;99145.59;4158412;28;20121;-72
2023/03/02 04:37:27;;;;;;;25.23;12.10;;;;;;;-6.65;100.00;99143.91;4158932;28;20041;-72
2023/03/02 04:39:28;;;;;;;21.50;11.63;;;;;;;-6.63;100.00;99147.97;4157046;28;20053;-72
2023/03/02 04:41:28;;;;;;;24.80;12.18;;;;;;;-6.69;100.00;99158.94;4158459;28;20041;-72
2023/03/02 04:43:29;;;;;;;27.15;12.93;;;;;;;-6.82;100.00;99149.31;4158168;28;20103;-72
2023/03/02 04:45:29;;;;;;;23.17;11.77;;;;;;;-6.83;100.00;99151.22;4158548;28;20132;-72
2023/03/02 04:47:29;;;;;;;20.33;11.55;;;;;;;-6.84;100.00;99156.84;4158491;28;20042;-72
2023/03/02 04:49:30;;;;;;;24.48;12.07;;;;;;;-6.91;100.00;99159.69;4158257;28;20045;-72
2023/03/02 04:51:36;;;;;;;23.40;11.25;;;;;;;-6.98;100.00;99164.44;4158212;28;20055;-72
2023/03/02 04:53:36;;;;;;;21.58;11.68;;;;;;;-7.07;100.00;99160.53;4157947;28;20107;-72
2023/03/02 04:55:38;;;;;;;24.90;12.80;;;;;;;-7.16;100.00;99162.84;4158389;28;20050;-72
2023/03/02 04:57:38;;;;;;;23.42;11.57;;;;;;;-7.21;100.00;99162.75;4158367;28;20527;-72
2023/03/02 04:59:38;;;;;;;28.17;12.52;;;;;;;-7.16;100.00;99164.72;4158252;28;20124;-72
2023/03/02 05:01:40;;;;;;;25.50;12.98;;;;;;;-7.17;100.00;99166.59;4158646;28;20391;-72
2023/03/02 05:03:40;;;;;;;24.63;12.35;;;;;;;-7.22;100.00;99163.00;4157907;28;20517;-72
2023/03/02 05:05:41;;;;;;;21.08;10.93;;;;;;;-7.14;100.00;99159.91;4158256;28;20045;-72
2023/03/02 05:07:41;;;;;;;25.55;11.55;;;;;;;-7.18;100.00;99167.66;4158302;28;20072;-72
2023/03/02 05:09:41;;;;;;;27.95;12.45;;;;;;;-7.18;100.00;99175.72;4157872;28;20501;-72
2023/03/02 05:11:42;;;;;;;26.05;12.98;;;;;;;-7.11;100.00;99170.19;4157158;28;20144;-72
2023/03/02 05:13:42;;;;;;;27.05;13.52;;;;;;;-7.13;100.00;99173.09;4157966;28;20048;-72
2023/03/02 05:15:42;;;;;;;29.08;13.32;;;;;;;-7.06;100.00;99167.56;4157445;28;20481;-72
2023/03/02 05:17:43;;;;;;;26.33;12.93;;;;;;;-7.05;100.00;99179.13;4158126;28;20585;-72
2023/03/02 05:19:43;;;;;;;28.38;13.57;;;;;;;-7.01;100.00;99173.00;4158268;28;20569;-72
2023/03/02 05:21:44;;;;;;;26.77;12.95;;;;;;;-7.09;100.00;99171.56;4157685;28;20137;-72
2023/03/02 05:23:45;;;;;;;33.55;14.43;;;;;;;-7.24;100.00;99174.00;4157347;28;20045;-72
2023/03/02 05:25:45;;;;;;;33.90;14.65;;;;;;;-7.20;100.00;99177.00;4157770;28;20040;-72
2023/03/02 05:27:46;;;;;;;30.52;15.45;;;;;;;-7.22;100.00;99179.94;4158420;28;20485;-72
2023/03/02 05:29:46;;;;;;;33.13;14.57;;;;;;;-7.25;100.00;99175.06;4157106;28;20042;-72
2023/03/02 05:31:48;;;;;;;35.10;16.50;;;;;;;-7.17;100.00;99187.28;4157737;28;20077;-72
2023/03/02 05:33:48;;;;;;;30.75;15.65;;;;;;;-7.23;100.00;99172.13;4157841;28;20045;-72
2023/03/02 05:35:49;;;;;;;37.63;16.40;;;;;;;-7.22;100.00;99177.25;4157434;28;20486;-72
2023/03/02 05:37:49;;;;;;;38.28;16.02;;;;;;;-7.17;100.00;99177.34;4158082;28;20051;-72
2023/03/02 05:39:50;;;;;;;38.80;15.73;;;;;;;-7.16;100.00;99181.66;4157670;28;20088;-72
2023/03/02 05:41:50;;;;;;;35.50;16.40;;;;;;;-7.08;100.00;99181.25;4157960;28;20096;-72
2023/03/02 05:43:50;;;;;;;31.00;15.25;;;;;;;-7.08;100.00;99183.94;4157156;28;20521;-72
2023/03/02 05:45:51;;;;;;;29.33;15.63;;;;;;;-7.10;100.00;99183.38;4157011;28;20084;-72
2023/03/02 05:47:51;;;;;;;37.28;16.38;;;;;;;-7.16;100.00;99173.59;4157326;28;20060;-72
2023/03/02 05:49:52;;;;;;;36.90;17.40;;;;;;;-7.14;100.00;99178.72;4157395;28;20175;-72
2023/03/02 05:51:52;;;;;;;36.97;14.98;;;;;;;-7.20;100.00;99174.31;4158028;28;20041;-72
2023/03/02 05:53:53;;;;;;;43.28;17.30;;;;;;;-7.33;100.00;99180.03;4157167;28;20143;-72
2023/03/02 05:55:53;;;;;;;36.15;16.70;;;;;;;-7.38;100.00;99173.50;4092502;28;20090;-72
2023/03/02 05:57:54;;;;;;;32.88;17.38;;;;;;;-7.43;100.00;99178.81;4134623;28;20063;-72
2023/03/02 05:59:54;;;;;;;39.15;17.42;;;;;;;-7.46;100.00;99173.09;4157052;28;20049;-72
2023/03/02 06:01:57;;;;;;;35.88;16.63;;;;;;;-7.46;100.00;99179.28;4157677;28;20038;-72
2023/03/02 06:03:57;;;;;;;34.17;15.75;;;;;;;-7.40;100.00;99180.19;4156527;28;20033;-72
2023/03/02 06:05:58;;;;;;;40.33;16.88;;;;;;;-7.42;100.00;99185.00;4157186;28;20041;-72
2023/03/02 06:07:58;;;;;;;33.35;15.93;;;;;;;-7.37;100.00;99183.19;4157369;28;20820;-72
2023/03/02 06:09:58;;;;;;;33.22;16.27;;;;;;;-7.31;100.00;99189.47;4157931;28;20045;-72
2023/03/02 06:11:59;;;;;;;35.90;16.02;;;;;;;-7.34;100.00;99181.91;4157599;28;20036;-72
2023/03/02 06:13:59;;;;;;;35.85;16.40;;;;;;;-7.37;100.00;99185.88;4156954;28;20112;-72
2023/03/02 06:15:59;;;;;;;30.73;15.75;;;;;;;-7.39;100.00;99192.56;4157816;28;20136;-72
2023/03/02 06:18:00;;;;;;;33.13;15.43;;;;;;;-7.44;100.00;99196.00;4156983;28;20049;-72
2023/03/02 06:20:00;;;;;;;40.30;17.00;;;;;;;-7.42;100.00;99195.75;4157074;28;20068;-72
2023/03/02 06:22:01;;;;;;;35.65;16.80;;;;;;;-7.32;100.00;99198.63;4157923;28;20037;-72
2023/03/02 06:24:01;;;;;;;33.45;17.02;;;;;;;-7.30;100.00;99196.50;4155864;28;20050;-72
2023/03/02 06:26:11;;;;;;;34.15;17.15;;;;;;;-7.34;100.00;99195.38;4156065;28;20474;-72
2023/03/02 06:28:12;;;;;;;34.53;17.33;;;;;;;-7.37;100.00;99202.03;4156079;28;20033;-72
2023/03/02 06:30:14;;;;;;;39.20;19.42;;;;;;;-7.30;100.00;99209.13;4156320;28;20060;-72
2023/03/02 06:32:15;;;;;;;;;;;;;;;-7.29;100.00;99208.88;4157584;28;20029;-72
2023/03/02 06:34:15;;;;;;;31.00;13.38;;;;;;;-7.32;100.00;99201.31;4155441;28;20388;-72
2023/03/02 06:36:16;;;;;;;33.85;14.10;;;;;;;-7.28;100.00;99199.78;4156251;28;20072;-72
2023/03/02 06:38:16;;;;;;;31.13;14.45;;;;;;;-7.20;100.00;99203.91;4157565;28;20224;-72
2023/03/02 06:40:17;;;;;;;30.83;13.82;;;;;;;-7.20;100.00;99204.75;4157311;28;20068;-72
2023/03/02 06:42:17;;;;;;;36.78;15.48;;;;;;;-7.26;100.00;99194.97;4157343;28;20029;-72
2023/03/02 06:44:17;;;;;;;33.22;15.82;;;;;;;-7.24;100.00;99197.41;4156510;28;20445;-72
2023/03/02 06:46:18;;;;;;;37.28;14.30;;;;;;;-7.17;100.00;99196.16;4157212;28;20117;-72
2023/03/02 06:48:18;;;;;;;31.20;14.63;;;;;;;-7.12;100.00;99196.22;4156992;28;20030;-72
2023/03/02 06:50:19;;;;;;;27.25;13.23;;;;;;;-7.07;100.00;99199.00;4157166;28;20025;-72
2023/03/02 06:52:19;;;;;;;29.92;13.35;;;;;;;-7.01;100.00;99202.59;4157902;28;20466;-72
2023/03/02 06:54:19;;;;;;;26.73;13.45;;;;;;;-6.93;100.00;99198.69;4156569;28;20120;-72
2023/03/02 06:56:20;;;;;;;28.35;13.88;;;;;;;-6.87;100.00;99193.13;4157139;28;20030;-72
2023/03/02 06:58:20;;;;;;;29.15;13.68;;;;;;;-6.81;100.00;99202.88;4191434;28;21649;-72
2023/03/02 07:00:26;;;;;;;24.70;11.88;;;;;;;-6.82;100.00;99195.06;4160263;28;20111;-72
2023/03/02 07:02:26;;;;;;;28.40;13.52;;;;;;;-6.81;100.00;99197.50;4159336;28;20033;-72
2023/03/02 07:04:29;;;;;;;31.83;13.15;;;;;;;-6.76;100.00;99186.00;4159844;28;20075;-72
2023/03/02 07:06:29;;;;;;;26.30;14.18;;;;;;;-6.72;100.00;99189.81;4160448;28;20050;-72
2023/03/02 07:08:30;;;;;;;27.35;11.93;;;;;;;-6.73;100.00;99185.50;4159866;28;20493;-72
2023/03/02 07:10:32;;;;;;;30.48;13.32;;;;;;;-6.72;100.00;99189.00;4159852;28;20037;-72
2023/03/02 07:12:32;;;;;;;28.93;13.07;;;;;;;-6.70;100.00;99186.88;4159456;28;20033;-72
2023/03/02 07:14:35;;;;;;;21.55;11.88;;;;;;;-6.62;100.00;99199.91;4160251;28;20388;-72
2023/03/02 07:16:36;;;;;;;25.23;12.23;;;;;;;-6.59;100.00;99186.78;4159932;28;20029;-72
2023/03/02 07:18:37;;;;;;;33.55;14.27;;;;;;;-6.49;100.00;99194.19;4159604;28;20445;-72
2023/03/02 07:20:37;;;;;;;24.60;11.45;;;;;;;-6.38;100.00;99198.63;4159927;28;20042;-72
2023/03/02 07:22:38;;;;;;;27.73;13.43;;;;;;;-6.32;100.00;99205.69;4159430;28;20466;-72
2023/03/02 07:24:38;;;;;;;30.58;14.23;;;;;;;-6.26;100.00;99196.63;4159620;28;20536;-72
2023/03/02 07:26:39;;;;;;;27.27;12.98;;;;;;;-6.19;100.00;99196.44;4160014;28;20077;-72
2023/03/02 07:28:40;;;;;;;29.38;13.00;;;;;;;-6.16;100.00;99198.63;4159924;28;20081;-72
2023/03/02 07:30:41;;;;;;;21.38;12.10;;;;;;;-6.12;100.00;99197.06;4160114;28;20037;-72
2023/03/02 07:32:41;;;;;;;23.05;13.35;;;;;;;-6.04;100.00;99202.00;4158294;28;20493;-72
2023/03/02 07:34:41;;;;;;;29.70;12.85;;;;;;;-5.96;100.00;99195.34;4159678;28;20037;-72
2023/03/02 07:36:42;;;;;;;31.88;12.95;;;;;;;-5.91;100.00;99205.38;4160320;28;20433;-72
2023/03/02 07:38:42;;;;;;;24.25;12.18;;;;;;;-5.89;100.00;99193.22;4159687;28;20079;-72
2023/03/02 07:40:43;;;;;;;31.90;12.82;;;;;;;-5.88;100.00;99186.78;4159468;28;20037;-72
2023/03/02 07:42:43;;;;;;;27.23;12.38;;;;;;;-5.82;100.00;99193.84;4159537;28;20517;-72
2023/03/02 07:44:43;;;;;;;24.63;12.77;;;;;;;-5.74;100.00;99193.38;4159472;28;20096;-72
2023/03/02 07:46:44;;;;;;;23.15;12.57;;;;;;;-5.68;100.00;99199.66;4159100;28;20081;-72
2023/03/02 07:48:44;;;;;;;25.80;12.90;;;;;;;-5.64;100.00;99195.38;4159901;28;20049;-72
2023/03/02 07:50:45;;;;;;;27.73;12.25;;;;;;;-5.55;100.00;99201.13;4159569;28;20533;-72
2023/03/02 07:52:45;;;;;;;29.15;12.77;;;;;;;-5.48;100.00;99202.53;4158757;28;20103;-72
2023/03/02 07:54:46;;;;;;;36.28;17.23;;;;;;;-5.42;100.00;99198.81;4159411;28;20045;-72
2023/03/02 07:56:46;;;;;;;28.30;15.50;;;;;;;-5.35;100.00;99193.22;4159737;28;20045;-73
2023/03/02 07:58:46;;;;;;;27.13;14.30;;;;;;;-5.32;100.00;99198.09;4159619;28;20052;-72
2023/03/02 08:00:48;;;;;;;27.30;14.48;;;;;;;-5.27;100.00;99200.03;4159114;28;20037;-72
2023/03/02 08:02:48;;;;;;;35.45;15.45;;;;;;;-5.18;100.00;99193.09;4159106;28;20487;-72
2023/03/02 08:04:48;;;;;;;27.05;14.27;;;;;;;-5.11;100.00;99188.28;4159215;28;20037;-72
2023/03/02 08:06:49;;;;;;;27.17;13.55;;;;;;;-5.06;100.00;99182.09;4159319;28;20041;-72
2023/03/02 08:08:49;;;;;;;27.15;13.10;;;;;;;-4.97;100.00;99188.66;4158984;28;20103;-72
2023/03/02 08:10:50;;;;;;;28.80;13.60;;;;;;;-4.92;100.00;99184.09;4158906;28;20038;-72
2023/03/02 08:12:50;;;;;;;27.88;13.98;;;;;;;-4.87;100.00;99197.66;4158701;28;20049;-72
2023/03/02 08:14:51;;;;;;;27.30;12.60;;;;;;;-4.83;100.00;99187.94;4159118;28;20057;-72
2023/03/02 08:16:51;;;;;;;23.38;12.60;;;;;;;-4.74;100.00;99187.44;4159300;28;20033;-72
2023/03/02 08:18:52;;;;;;;24.10;13.13;;;;;;;-4.68;100.00;99189.13;4159068;28;20057;-72
2023/03/02 08:20:53;;;;;;;24.67;12.88;;;;;;;-4.59;100.00;99187.53;4158963;28;20072;-72
2023/03/02 08:22:53;;;;;;;27.65;13.00;;;;;;;-4.52;100.00;99190.81;4158633;28;20072;-72
2023/03/02 08:24:53;;;;;;;26.88;14.02;;;;;;;-4.44;100.00;99194.91;4158811;28;20061;-72
2023/03/02 08:26:54;;;;;;;27.00;15.52;;;;;;;-4.38;100.00;99193.88;4159172;28;20073;-72
2023/03/02 08:28:55;;;;;;;33.47;14.65;;;;;;;-4.25;100.00;99191.50;4158999;28;20053;-73
2023/03/02 08:30:59;;;;;;;51.40;18.85;;;;;;;-4.14;100.00;99189.63;4158449;28;20473;-72
2023/03/02 08:33:00;;;;;;;24.45;14.55;;;;;;;-3.99;100.00;99194.28;4158305;28;20033;-72
2023/03/02 08:35:01;;;;;;;26.73;13.98;;;;;;;-3.91;100.00;99182.94;4158476;28;20402;-72
2023/03/02 08:37:01;;;;;;;27.27;13.98;;;;;;;-3.78;100.00;99185.16;4158894;28;20545;-72
2023/03/02 08:39:01;;;;;;;26.40;13.52;;;;;;;-3.66;100.00;99187.59;4158712;28;20076;-72
2023/03/02 08:41:05;;;;;;;31.58;15.05;;;;;;;-3.60;100.00;99185.72;4158706;28;20548;-72
2023/03/02 08:43:05;;;;;;;28.52;14.10;;;;;;;-3.50;100.00;99185.75;4156864;28;20057;-72
2023/03/02 08:45:06;;;;;;;29.45;14.07;;;;;;;-3.46;100.00;99187.66;4158757;28;20662;-72
2023/03/02 08:47:07;;;;;;;38.97;17.17;;;;;;;-3.42;100.00;99183.31;4158657;28;20091;-72
2023/03/02 08:49:07;;;;;;;33.13;16.08;;;;;;;-3.38;100.00;99171.97;4158114;28;20080;-72
2023/03/02 08:51:17;;;;;;;25.02;14.18;;;;;;;-3.33;100.00;99174.66;4159155;28;20045;-72
2023/03/02 08:53:17;;;;;;;27.33;13.50;;;;;;;-3.29;100.00;99171.16;4158110;28;20045;-72
2023/03/02 08:55:18;;;;;;;30.33;15.40;;;;;;;-3.23;100.00;99164.66;4158685;28;20857;-72
2023/03/02 08:57:18;;;;;;;25.20;12.98;;;;;;;-3.20;100.00;99164.13;4158361;28;20053;-72
2023/03/02 08:59:20;;;;;;;23.77;12.80;;;;;;;-3.15;100.00;99161.38;4158407;28;20542;-72
2023/03/02 09:01:24;;;;;;;25.98;12.93;;;;;;;-3.04;100.00;99153.28;4158544;28;20046;-72
2023/03/02 09:03:24;;;;;;;24.73;13.25;;;;;;;-2.92;100.00;99156.50;4158038;28;20126;-72
2023/03/02 09:05:24;;;;;;;28.60;15.77;;;;;;;-2.90;100.00;99157.84;4158557;28;20084;-72
2023/03/02 09:07:25;;;;;;;23.50;13.10;;;;;;;-2.87;100.00;99151.09;4158113;28;20359;-72
2023/03/02 09:09:25;;;;;;;28.63;14.63;;;;;;;-2.86;100.00;99142.69;4158571;28;20045;-72
2023/03/02 09:11:26;;;;;;;25.35;13.68;;;;;;;-2.76;100.00;99158.09;4158187;28;20132;-72